Cleary Summit, AK

5:41 AM AKST on December 05, 2016 (GMT -0900)
Vienna Woods | | Change Station

Elev 1140 ft 64.91 °N, 147.53 °W | Updated 9 seconds ago

Clear
Clear
-7.1 °F
Feels Like -7 °F
N
1.0
Wind Variable Wind from SW

Today
High -- | Low -- °F
--% Chance of Precip.
Yesterday
High -- | Low -- °F
Precip. -- in
Pressure 30.66 in
Visibility 10.0 miles
Clouds Clear
Windchill -7 °F
Dew Point -13 °F
Humidity 75%
Rainfall 0.00 in
Snow Depth Not available.
10:34 AM 2:46 PM
Waxing Crescent, 32% visible
METAR PAFB 051358Z AUTO 07007KT 10SM CLR M25/M28 A3058 RMK AO2 SLP380 T12491277
Pressure 30.66 in
Visibility 10.0 miles
Clouds Clear
Windchill -7 °F
Dew Point -13 °F
Humidity 75%
Rainfall 0.00 in
Snow Depth Not available.
10:34 AM 2:46 PM
Waxing Crescent, 32% visible
METAR PAFB 051358Z AUTO 07007KT 10SM CLR M25/M28 A3058 RMK AO2 SLP380 T12491277

10-Day Weather Forecast

Almanac

Astronomy

Dec. 05, 2016 Rise Set
Actual Time
Civil Twilight
Nautical Twilight
Astronomical Twilight
Moon
Length of Visible Light
Length of Day
Tomorrow will be .
, % of the Moon is Illuminated

Today's Extremes

State Highs State Lows

Community

WunderPhotos

Upload Photos

1,955,785 photos uploaded!

WunderBlog® & News

Nearby

Air Quality

  Air Quality AQ Index Pollutant
Not available.

Snow Depth

Station Depth Elevation

Earthquake Activity

City Distance Mag. Time & Date
Minimum magnitude displayed is 2.5.

Coastal Water Temperatures

Place Temperature

Stations

Nearby Weather Stations

Station Location Temp. Windchill Dew Point Humidity Wind Precip. Elev Updated Type
                   

Watches & Warnings

There are currently no watches in effect.